Time;durP1;ratioP1;P1;durP2;ratioP2;P2;SDS_P1;SDS_P2;PMS_P1;PMS_P2;Temp;Humidity;BMP_temperature;BMP_pressure;BME280_temperature;BME280_humidity;BME280_pressure;Samples;Min_cycle;Max_cycle;Signal;HPM_P1;HPM_P2
2024/02/19 00:00:40;;;;;;;15.50;11.27;;;;;;;;;;4827106;29;20239;-86
2024/02/19 00:03:45;;;;;;;14.50;10.27;;;;;;;;;;4826970;29;20201;-86
2024/02/19 00:06:49;;;;;;;14.37;9.47;;;;;;;;;;4816317;29;20188;-86
2024/02/19 00:09:53;;;;;;;13.23;9.50;;;;;;;;;;4826724;29;20243;-86
2024/02/19 00:12:57;;;;;;;10.60;8.40;;;;;;;;;;4827703;29;20188;-87
2024/02/19 00:16:01;;;;;;;11.53;8.37;;;;;;;;;;4827160;29;20189;-86
2024/02/19 00:19:05;;;;;;;10.70;7.60;;;;;;;;;;4826625;29;20224;-86
2024/02/19 00:22:09;;;;;;;11.67;7.83;;;;;;;;;;4827354;29;20188;-86
2024/02/19 00:25:13;;;;;;;12.03;6.83;;;;;;;;;;4837650;29;20192;-86
2024/02/19 00:28:18;;;;;;;10.40;7.20;;;;;;;;;;4838408;29;20188;-88
2024/02/19 00:31:22;;;;;;;8.47;6.13;;;;;;;;;;4827561;29;20192;-88
2024/02/19 00:34:26;;;;;;;7.77;6.33;;;;;;;;;;4837555;29;20535;-88
2024/02/19 00:37:30;;;;;;;7.20;5.67;;;;;;;;;;4826525;29;20184;-87
2024/02/19 00:40:35;;;;;;;6.60;5.33;;;;;;;;;;4827494;29;20219;-87
2024/02/19 00:43:39;;;;;;;7.83;5.60;;;;;;;;;;4827022;29;20192;-87
2024/02/19 00:46:43;;;;;;;6.20;4.73;;;;;;;;;;4828673;29;20190;-87
2024/02/19 00:49:47;;;;;;;5.20;4.10;;;;;;;;;;4825702;29;20240;-87
2024/02/19 00:52:51;;;;;;;5.10;4.13;;;;;;;;;;4815405;29;20192;-87
2024/02/19 00:55:55;;;;;;;5.63;4.37;;;;;;;;;;4836979;29;20197;-87
2024/02/19 00:58:59;;;;;;;6.97;4.47;;;;;;;;;;4826750;29;20224;-87
2024/02/19 01:02:03;;;;;;;8.17;4.13;;;;;;;;;;4827056;29;20192;-87
2024/02/19 01:05:08;;;;;;;9.03;4.20;;;;;;;;;;4826246;29;20192;-87
2024/02/19 01:08:12;;;;;;;4.67;3.90;;;;;;;;;;4825769;29;20188;-87
2024/02/19 01:11:16;;;;;;;5.30;3.57;;;;;;;;;;4825726;29;20298;-87
2024/02/19 01:14:20;;;;;;;4.20;3.20;;;;;;;;;;4836856;29;20184;-87
2024/02/19 01:17:24;;;;;;;4.77;3.60;;;;;;;;;;4825518;29;20184;-87
2024/02/19 01:20:28;;;;;;;3.90;3.30;;;;;;;;;;4814907;29;20219;-87
2024/02/19 01:23:32;;;;;;;6.00;3.47;;;;;;;;;;4825543;29;20646;-87
2024/02/19 01:26:36;;;;;;;4.50;3.10;;;;;;;;;;4826659;29;20192;-87
2024/02/19 01:29:40;;;;;;;3.50;2.77;;;;;;;;;;4825702;29;20231;-87
2024/02/19 01:32:45;;;;;;;6.03;3.03;;;;;;;;;;4835982;29;20185;-87
2024/02/19 01:35:49;;;;;;;5.30;2.87;;;;;;;;;;4836027;29;20188;-88
2024/02/19 01:38:53;;;;;;;4.10;2.90;;;;;;;;;;4815177;29;20220;-87
2024/02/19 01:41:57;;;;;;;3.30;2.80;;;;;;;;;;4825445;29;20192;-88
2024/02/19 01:45:05;;;;;;;4.83;3.07;;;;;;;;;;4823707;29;20197;-87
2024/02/19 01:48:09;;;;;;;4.20;2.80;;;;;;;;;;4824935;29;20184;-87
2024/02/19 01:51:16;;;;;;;3.30;2.67;;;;;;;;;;4825142;29;20185;-86
2024/02/19 01:54:20;;;;;;;3.27;2.63;;;;;;;;;;4814203;29;20527;-86
2024/02/19 01:57:24;;;;;;;3.60;2.67;;;;;;;;;;4835260;29;20189;-87
2024/02/19 02:00:31;;;;;;;4.30;2.50;;;;;;;;;;4824715;29;20219;-87
2024/02/19 02:03:36;;;;;;;4.20;2.93;;;;;;;;;;4824785;29;20532;-86
2024/02/19 02:06:40;;;;;;;2.63;2.40;;;;;;;;;;4813580;29;20537;-86
2024/02/19 02:09:46;;;;;;;3.07;2.70;;;;;;;;;;4824453;29;20236;-87
2024/02/19 02:12:50;;;;;;;3.73;2.43;;;;;;;;;;4824553;29;20184;-87
2024/02/19 02:15:54;;;;;;;3.10;2.50;;;;;;;;;;4824590;29;20196;-86
2024/02/19 02:18:58;;;;;;;3.77;2.13;;;;;;;;;;4824354;29;20228;-86
2024/02/19 02:22:02;;;;;;;4.43;2.60;;;;;;;;;;4834850;29;20192;-87
2024/02/19 02:25:06;;;;;;;5.77;2.70;;;;;;;;;;4824700;29;20189;-88
2024/02/19 02:28:10;;;;;;;5.73;2.37;;;;;;;;;;4825266;29;20192;-86
2024/02/19 02:31:15;;;;;;;3.10;2.30;;;;;;;;;;4824512;29;20638;-87
2024/02/19 02:34:19;;;;;;;3.87;2.20;;;;;;;;;;4824691;29;20184;-86
2024/02/19 02:37:23;;;;;;;2.40;1.87;;;;;;;;;;4834980;29;20192;-87
2024/02/19 02:40:27;;;;;;;5.30;2.10;;;;;;;;;;4824902;29;20228;-86
2024/02/19 02:43:32;;;;;;;2.23;1.90;;;;;;;;;;4834188;29;20192;-87
2024/02/19 02:46:36;;;;;;;2.30;1.97;;;;;;;;;;4824428;29;20550;-86
2024/02/19 02:49:40;;;;;;;3.00;1.63;;;;;;;;;;4824020;29;20239;-87
2024/02/19 02:52:44;;;;;;;3.27;1.77;;;;;;;;;;4824430;29;20188;-86
2024/02/19 02:55:49;;;;;;;2.47;1.80;;;;;;;;;;4823495;29;20192;-87
2024/02/19 02:58:53;;;;;;;5.07;2.07;;;;;;;;;;4834822;29;20227;-87
2024/02/19 03:01:58;;;;;;;3.77;2.03;;;;;;;;;;4825047;29;20799;-86
2024/02/19 03:05:03;;;;;;;2.00;1.80;;;;;;;;;;4824460;29;20184;-86
2024/02/19 03:08:07;;;;;;;3.90;1.73;;;;;;;;;;4826325;29;20200;-88
2024/02/19 03:11:12;;;;;;;1.60;1.50;;;;;;;;;;4825159;29;20208;-87
2024/02/19 03:14:16;;;;;;;1.70;1.40;;;;;;;;;;4824478;29;20185;-87
2024/02/19 03:17:38;;;;;;;2.33;1.50;;;;;;;;;;5011741;28;20861;-87
2024/02/19 03:20:42;;;;;;;1.63;1.23;;;;;;;;;;5010654;28;20224;-87
2024/02/19 03:23:51;;;;;;;1.53;1.20;;;;;;;;;;5009875;28;20182;-86
2024/02/19 03:26:57;;;;;;;1.27;1.10;;;;;;;;;;4998588;28;20174;-87
2024/02/19 03:30:02;;;;;;;1.50;1.20;;;;;;;;;;5010362;28;20221;-87
2024/02/19 03:33:06;;;;;;;1.13;1.00;;;;;;;;;;5010946;28;20185;-87
2024/02/19 03:36:11;;;;;;;2.30;1.10;;;;;;;;;;5009598;28;20204;-87
2024/02/19 03:39:15;;;;;;;1.20;1.10;;;;;;;;;;5010076;28;20225;-86
2024/02/19 03:42:19;;;;;;;2.07;0.90;;;;;;;;;;5011048;28;20186;-86
2024/02/19 03:45:23;;;;;;;1.60;1.00;;;;;;;;;;4998829;28;20178;-87
2024/02/19 03:48:27;;;;;;;1.93;0.97;;;;;;;;;;4996305;28;20182;-86
2024/02/19 03:51:31;;;;;;;1.10;1.00;;;;;;;;;;5007928;28;20554;-86
2024/02/19 03:54:36;;;;;;;1.20;1.10;;;;;;;;;;5009001;28;20546;-87
2024/02/19 03:57:41;;;;;;;1.60;1.10;;;;;;;;;;5008683;28;20206;-86
2024/02/19 04:00:45;;;;;;;1.07;0.97;;;;;;;;;;4997153;28;20230;-86
2024/02/19 04:03:49;;;;;;;1.17;1.00;;;;;;;;;;5009159;28;20182;-87
2024/02/19 04:06:53;;;;;;;1.10;1.00;;;;;;;;;;4997280;28;20186;-87
2024/02/19 04:09:57;;;;;;;1.37;1.00;;;;;;;;;;5008935;28;20596;-87
2024/02/19 04:13:02;;;;;;;2.80;1.07;;;;;;;;;;5009638;28;20627;-87
2024/02/19 04:16:09;;;;;;;0.93;0.83;;;;;;;;;;5008849;28;20221;-87
2024/02/19 04:19:16;;;;;;;1.70;1.03;;;;;;;;;;5009307;28;20217;-87
2024/02/19 04:22:20;;;;;;;1.17;1.03;;;;;;;;;;5008797;28;20186;-87
2024/02/19 04:25:25;;;;;;;1.30;1.00;;;;;;;;;;5008560;28;20546;-87
2024/02/19 04:28:30;;;;;;;0.70;0.70;;;;;;;;;;4987421;28;20183;-87
2024/02/19 04:31:34;;;;;;;1.37;1.03;;;;;;;;;;4974432;28;20204;-86
2024/02/19 04:34:38;;;;;;;1.27;0.93;;;;;;;;;;4995809;28;20538;-88
2024/02/19 04:37:42;;;;;;;1.13;0.97;;;;;;;;;;4983978;28;20210;-86
2024/02/19 04:40:46;;;;;;;2.33;1.10;;;;;;;;;;4996211;28;20230;-89
2024/02/19 04:43:51;;;;;;;1.17;0.93;;;;;;;;;;4995892;28;20182;-87
2024/02/19 04:46:56;;;;;;;1.43;1.00;;;;;;;;;;4987059;28;20186;-87
2024/02/19 04:50:01;;;;;;;1.40;1.30;;;;;;;;;;4996526;28;20218;-89
2024/02/19 04:53:05;;;;;;;1.07;0.97;;;;;;;;;;4984750;28;20186;-88
2024/02/19 04:56:14;;;;;;;1.90;1.50;;;;;;;;;;4995735;28;20213;-88
2024/02/19 04:59:18;;;;;;;1.40;1.30;;;;;;;;;;4995614;28;20230;-87
2024/02/19 05:02:22;;;;;;;1.47;1.27;;;;;;;;;;4995236;28;20182;-87
2024/02/19 05:05:26;;;;;;;2.13;1.30;;;;;;;;;;4995185;28;20182;-86
2024/02/19 05:08:30;;;;;;;5.30;1.30;;;;;;;;;;4995924;28;20638;-87
2024/02/19 05:11:34;;;;;;;1.10;1.00;;;;;;;;;;4995938;28;20186;-86
2024/02/19 05:14:39;;;;;;;1.30;1.20;;;;;;;;;;4995836;28;20186;-87
2024/02/19 05:17:42;;;;;;;1.50;1.40;;;;;;;;;;4995556;28;20198;-87
2024/02/19 05:20:47;;;;;;;2.30;1.50;;;;;;;;;;4983465;28;20226;-87
2024/02/19 05:23:51;;;;;;;1.40;1.30;;;;;;;;;;4994868;28;20186;-86
2024/02/19 05:26:55;;;;;;;1.50;1.40;;;;;;;;;;4994467;28;20183;-86
2024/02/19 05:29:59;;;;;;;1.97;1.50;;;;;;;;;;4995401;28;20221;-87
2024/02/19 05:33:04;;;;;;;3.10;1.50;;;;;;;;;;4995649;28;20182;-88
2024/02/19 05:36:10;;;;;;;1.70;1.60;;;;;;;;;;4995008;28;20561;-87
2024/02/19 05:39:14;;;;;;;3.00;1.63;;;;;;;;;;4971744;28;20230;-87
2024/02/19 05:42:19;;;;;;;2.67;1.53;;;;;;;;;;4995178;28;20643;-87
2024/02/19 05:45:23;;;;;;;1.83;1.70;;;;;;;;;;4983821;28;20551;-87
2024/02/19 05:48:28;;;;;;;2.03;1.70;;;;;;;;;;4983714;28;20182;-86
2024/02/19 05:51:32;;;;;;;1.70;1.60;;;;;;;;;;4994792;28;20186;-87
2024/02/19 05:54:36;;;;;;;1.70;1.50;;;;;;;;;;4982327;28;20551;-86
2024/02/19 05:57:40;;;;;;;2.40;1.73;;;;;;;;;;4993779;28;20205;-87
2024/02/19 06:00:44;;;;;;;2.20;1.60;;;;;;;;;;4982543;28;20226;-86
2024/02/19 06:03:48;;;;;;;1.60;1.47;;;;;;;;;;4993842;28;20182;-87
2024/02/19 06:06:53;;;;;;;2.50;1.70;;;;;;;;;;4993966;28;20178;-87
2024/02/19 06:09:57;;;;;;;1.57;1.40;;;;;;;;;;4994290;28;20214;-87
2024/02/19 06:13:01;;;;;;;2.50;1.90;;;;;;;;;;4995265;28;20182;-86
2024/02/19 06:16:05;;;;;;;1.60;1.50;;;;;;;;;;4982883;28;20214;-87
2024/02/19 06:19:10;;;;;;;1.97;1.63;;;;;;;;;;4972259;28;20261;-87
2024/02/19 06:22:14;;;;;;;2.07;1.70;;;;;;;;;;4995010;28;20186;-86
2024/02/19 06:25:18;;;;;;;2.07;1.83;;;;;;;;;;4983260;28;20186;-87
2024/02/19 06:28:22;;;;;;;2.57;1.57;;;;;;;;;;4983074;28;20182;-87
2024/02/19 06:31:27;;;;;;;2.80;1.80;;;;;;;;;;4972085;28;20191;-87
2024/02/19 06:34:34;;;;;;;1.90;1.70;;;;;;;;;;4994509;28;20186;-86
2024/02/19 06:37:38;;;;;;;3.10;1.63;;;;;;;;;;4993967;28;20214;-88
2024/02/19 06:40:43;;;;;;;4.70;1.70;;;;;;;;;;4994099;28;20225;-87
2024/02/19 06:43:47;;;;;;;2.20;1.80;;;;;;;;;;4994217;28;20183;-86
2024/02/19 06:46:51;;;;;;;3.67;2.10;;;;;;;;;;4982703;28;20183;-87
2024/02/19 06:49:56;;;;;;;24.97;13.10;;;;;;;;;;4998119;28;20226;-88
2024/02/19 06:53:02;;;;;;;4.23;3.10;;;;;;;;;;4996664;28;20186;-86
2024/02/19 06:56:08;;;;;;;4.83;2.57;;;;;;;;;;4982732;28;20190;-86
2024/02/19 06:59:12;;;;;;;2.97;2.20;;;;;;;;;;4994164;28;20213;-86
2024/02/19 07:02:17;;;;;;;20.23;13.27;;;;;;;;;;4994018;28;20190;-85
2024/02/19 07:05:22;;;;;;;19.10;12.13;;;;;;;;;;4993752;28;20186;-85
2024/02/19 07:08:26;;;;;;;2.90;2.60;;;;;;;;;;4982128;28;20178;-85
2024/02/19 07:11:30;;;;;;;1.73;1.60;;;;;;;;;;4993483;28;20182;-87
2024/02/19 07:14:34;;;;;;;1.97;1.77;;;;;;;;;;4982158;28;20570;-86
2024/02/19 07:17:39;;;;;;;2.33;1.60;;;;;;;;;;4998849;28;20206;-86
2024/02/19 07:20:44;;;;;;;2.47;1.80;;;;;;;;;;5001690;28;20222;-86
2024/02/19 07:23:48;;;;;;;2.40;1.90;;;;;;;;;;5002851;28;20191;-86
2024/02/19 07:26:53;;;;;;;8.63;5.43;;;;;;;;;;5002027;28;20178;-86
2024/02/19 07:29:58;;;;;;;4.10;2.70;;;;;;;;;;5001606;28;20222;-86
2024/02/19 07:33:03;;;;;;;3.77;2.00;;;;;;;;;;4990940;28;20178;-86
2024/02/19 07:36:07;;;;;;;4.50;2.13;;;;;;;;;;5001591;28;20578;-85
2024/02/19 07:39:12;;;;;;;2.40;1.90;;;;;;;;;;5001567;28;20214;-86
2024/02/19 07:42:16;;;;;;;3.10;2.03;;;;;;;;;;4990864;28;20190;-86
2024/02/19 07:45:20;;;;;;;2.77;2.10;;;;;;;;;;4991092;28;20186;-87
2024/02/19 07:48:25;;;;;;;3.27;2.20;;;;;;;;;;5002260;28;20171;-86
2024/02/19 07:51:31;;;;;;;3.40;1.70;;;;;;;;;;5001880;28;20183;-87
2024/02/19 07:54:36;;;;;;;2.90;1.83;;;;;;;;;;4990465;28;20187;-86
2024/02/19 07:57:40;;;;;;;2.27;1.80;;;;;;;;;;4978085;28;20210;-87
2024/02/19 08:00:44;;;;;;;3.30;2.67;;;;;;;;;;4989230;28;20221;-86
2024/02/19 08:04:26;;;;;;;2.50;1.97;;;;;;;;;;4991170;28;20178;-90
2024/02/19 08:08:38;;;;;;;2.67;2.20;;;;;;;;;;4990539;28;20182;-91
2024/02/19 08:12:48;;;;;;;2.10;1.90;;;;;;;;;;5001915;28;20195;-90
2024/02/19 08:15:52;;;;;;;3.37;2.33;;;;;;;;;;4979365;28;20682;-86
2024/02/19 08:18:57;;;;;;;3.90;2.57;;;;;;;;;;4979173;28;20226;-87
2024/02/19 08:22:01;;;;;;;2.50;2.30;;;;;;;;;;4989688;28;20190;-87
2024/02/19 08:25:06;;;;;;;4.50;2.40;;;;;;;;;;5000125;28;20182;-88
2024/02/19 08:28:10;;;;;;;3.13;2.20;;;;;;;;;;4989344;28;20178;-86
2024/02/19 08:31:14;;;;;;;3.53;1.90;;;;;;;;;;4989542;28;20186;-87
2024/02/19 08:34:18;;;;;;;2.47;1.90;;;;;;;;;;5000281;28;20178;-86
2024/02/19 08:37:22;;;;;;;2.60;1.70;;;;;;;;;;4977298;28;20206;-86
2024/02/19 08:40:26;;;;;;;4.43;2.43;;;;;;;;;;4999573;28;20217;-86
2024/02/19 08:43:32;;;;;;;2.57;2.13;;;;;;;;;;4999179;28;20174;-86
2024/02/19 08:46:36;;;;;;;2.73;1.50;;;;;;;;;;4998871;28;20175;-84
2024/02/19 08:49:40;;;;;;;2.47;2.00;;;;;;;;;;4987493;28;20214;-84
2024/02/19 08:52:46;;;;;;;3.53;2.00;;;;;;;;;;4998576;28;20182;-84
2024/02/19 08:55:51;;;;;;;2.33;2.03;;;;;;;;;;4998448;28;20547;-82
2024/02/19 08:58:55;;;;;;;3.80;2.03;;;;;;;;;;4997438;28;20229;-84
2024/02/19 09:01:59;;;;;;;2.50;1.63;;;;;;;;;;4998950;28;20194;-87
2024/02/19 09:05:03;;;;;;;3.57;1.90;;;;;;;;;;4985394;28;20546;-89
2024/02/19 09:08:10;;;;;;;3.10;1.43;;;;;;;;;;4974678;28;20170;-89
2024/02/19 09:11:20;;;;;;;2.63;1.70;;;;;;;;;;4975974;28;20186;-88
2024/02/19 09:14:28;;;;;;;1.87;1.70;;;;;;;;;;4997002;28;20190;-88
2024/02/19 09:17:32;;;;;;;2.30;1.60;;;;;;;;;;4976652;28;20229;-89
2024/02/19 09:20:36;;;;;;;2.47;1.47;;;;;;;;;;4975752;28;20214;-88
2024/02/19 09:23:41;;;;;;;2.20;1.17;;;;;;;;;;4974263;28;20178;-88
2024/02/19 09:26:45;;;;;;;1.50;1.27;;;;;;;;;;4985972;28;20182;-86
2024/02/19 09:29:49;;;;;;;2.13;1.43;;;;;;;;;;4996678;28;20213;-86
2024/02/19 09:32:53;;;;;;;2.17;1.30;;;;;;;;;;4998043;28;20174;-86
2024/02/19 09:35:58;;;;;;;1.93;1.40;;;;;;;;;;4996471;28;20179;-86
2024/02/19 09:39:02;;;;;;;2.27;1.67;;;;;;;;;;4997019;28;20230;-86
2024/02/19 09:42:10;;;;;;;5.03;1.53;;;;;;;;;;4996610;28;20195;-86
2024/02/19 09:45:14;;;;;;;2.03;1.40;;;;;;;;;;4995558;28;20191;-86
2024/02/19 09:48:22;;;;;;;1.80;1.40;;;;;;;;;;4973695;28;20178;-87
2024/02/19 09:51:28;;;;;;;1.90;1.40;;;;;;;;;;4996091;28;20183;-87
2024/02/19 09:54:32;;;;;;;1.60;1.20;;;;;;;;;;4973034;28;20182;-86
2024/02/19 09:57:36;;;;;;;1.53;1.17;;;;;;;;;;4983764;28;20235;-87
2024/02/19 10:00:41;;;;;;;2.87;1.47;;;;;;;;;;4984253;28;20218;-87
2024/02/19 10:03:46;;;;;;;2.70;1.00;;;;;;;;;;4995118;28;20186;-86
2024/02/19 10:06:52;;;;;;;1.40;1.23;;;;;;;;;;4995434;28;20187;-86
2024/02/19 10:09:56;;;;;;;3.70;1.20;;;;;;;;;;4997010;28;20588;-87
2024/02/19 10:13:00;;;;;;;3.10;1.50;;;;;;;;;;4994948;28;20182;-87
2024/02/19 10:16:07;;;;;;;1.47;1.10;;;;;;;;;;4983467;28;20586;-88
2024/02/19 10:19:12;;;;;;;1.87;1.00;;;;;;;;;;4971829;28;20230;-88
2024/02/19 10:22:20;;;;;;;1.43;1.13;;;;;;;;;;4994625;28;20555;-87
2024/02/19 10:25:24;;;;;;;2.10;1.23;;;;;;;;;;4971834;28;20187;-87
2024/02/19 10:28:29;;;;;;;2.63;1.30;;;;;;;;;;4983454;28;20179;-87
2024/02/19 10:31:33;;;;;;;2.87;1.30;;;;;;;;;;4983935;28;20174;-87
2024/02/19 10:34:38;;;;;;;4.67;1.43;;;;;;;;;;4983215;28;20174;-88
2024/02/19 10:37:42;;;;;;;5.33;1.47;;;;;;;;;;4993933;28;20202;-87
2024/02/19 10:40:47;;;;;;;2.97;1.37;;;;;;;;;;4983175;28;20218;-86
2024/02/19 10:43:51;;;;;;;2.10;1.00;;;;;;;;;;4974055;28;20183;-87
2024/02/19 10:46:56;;;;;;;2.00;1.10;;;;;;;;;;4983942;28;20191;-87
2024/02/19 10:50:04;;;;;;;2.10;1.03;;;;;;;;;;4994956;28;20579;-87
2024/02/19 10:53:08;;;;;;;3.63;1.20;;;;;;;;;;4984153;28;20174;-87
2024/02/19 10:56:19;;;;;;;2.17;1.10;;;;;;;;;;4985316;28;20186;-87
2024/02/19 10:59:24;;;;;;;1.83;1.10;;;;;;;;;;4983783;28;20226;-87
2024/02/19 11:02:29;;;;;;;2.67;1.00;;;;;;;;;;4984803;28;20182;-87
2024/02/19 11:05:45;;;;;;;4.23;1.00;;;;;;;;;;4984241;28;20190;-87
2024/02/19 11:08:54;;;;;;;2.87;0.93;;;;;;;;;;4983965;28;20564;-88
2024/02/19 11:12:02;;;;;;;2.87;1.10;;;;;;;;;;4973840;28;20182;-87
2024/02/19 11:15:17;;;;;;;2.83;1.00;;;;;;;;;;4984065;28;20178;-88
2024/02/19 11:18:21;;;;;;;3.57;0.90;;;;;;;;;;4984163;28;20544;-87
2024/02/19 11:21:25;;;;;;;1.83;0.70;;;;;;;;;;4972909;28;20190;-88
2024/02/19 11:24:31;;;;;;;2.57;0.77;;;;;;;;;;4973515;28;20183;-88
2024/02/19 11:27:35;;;;;;;2.40;0.90;;;;;;;;;;4985984;28;20528;-86
2024/02/19 11:30:39;;;;;;;2.17;0.90;;;;;;;;;;4973697;28;20213;-87
2024/02/19 11:33:48;;;;;;;4.17;2.80;;;;;;;;;;4996202;28;20178;-85
2024/02/19 11:36:55;;;;;;;5.78;4.15;;;;;;;;;;4994639;28;21053;-84
2024/02/19 11:39:59;;;;;;;11.52;8.02;;;;;;;;;;4996237;28;20746;-84
2024/02/19 11:43:04;;;;;;;2.83;1.75;;;;;;;;;;4974530;28;20709;-84
2024/02/19 11:46:08;;;;;;;3.88;1.30;;;;;;;;;;4985678;28;21241;-86
2024/02/19 11:49:14;;;;;;;3.43;2.13;;;;;;;;;;4999868;28;20214;-85
2024/02/19 11:52:18;;;;;;;1.17;0.70;;;;;;;;;;4998718;28;20178;-85
2024/02/19 11:55:23;;;;;;;3.10;1.17;;;;;;;;;;4999596;28;20175;-87
2024/02/19 11:58:28;;;;;;;3.00;0.83;;;;;;;;;;4998381;28;20198;-85
2024/02/19 12:01:32;;;;;;;2.60;0.83;;;;;;;;;;4997733;28;20186;-88
2024/02/19 12:04:37;;;;;;;2.03;0.83;;;;;;;;;;4997131;28;20182;-88
2024/02/19 12:07:43;;;;;;;2.37;0.90;;;;;;;;;;4999496;28;20642;-88
2024/02/19 12:10:47;;;;;;;2.47;0.83;;;;;;;;;;4986362;28;20206;-88
2024/02/19 12:13:51;;;;;;;3.43;1.20;;;;;;;;;;4986876;28;20639;-86
2024/02/19 12:16:55;;;;;;;1.03;0.80;;;;;;;;;;4986724;28;20205;-86
2024/02/19 12:19:59;;;;;;;2.20;0.90;;;;;;;;;;4987138;28;20564;-87
2024/02/19 12:23:04;;;;;;;3.33;0.83;;;;;;;;;;4975561;28;20187;-87
2024/02/19 12:26:09;;;;;;;1.70;0.90;;;;;;;;;;4987354;28;20186;-86
2024/02/19 12:29:13;;;;;;;1.90;0.90;;;;;;;;;;4976960;28;20215;-88
2024/02/19 12:32:21;;;;;;;2.10;0.80;;;;;;;;;;4988624;28;20186;-85
2024/02/19 12:35:26;;;;;;;1.40;0.80;;;;;;;;;;4999624;28;20183;-83
2024/02/19 12:38:30;;;;;;;2.05;0.93;;;;;;;;;;5000116;28;20713;-83
2024/02/19 12:41:35;;;;;;;2.47;0.90;;;;;;;;;;5000338;28;20698;-85
2024/02/19 12:44:39;;;;;;;3.70;0.80;;;;;;;;;;4988285;28;20182;-84
2024/02/19 12:47:43;;;;;;;3.15;1.30;;;;;;;;;;4973555;28;20651;-82
2024/02/19 12:50:48;;;;;;;2.83;1.20;;;;;;;;;;4998714;28;20209;-83
2024/02/19 12:53:53;;;;;;;1.17;0.83;;;;;;;;;;4977352;28;20186;-85
2024/02/19 12:56:58;;;;;;;7.97;1.00;;;;;;;;;;4999326;28;20182;-85
2024/02/19 13:00:06;;;;;;;3.03;1.10;;;;;;;;;;4987506;28;20225;-86
2024/02/19 13:03:13;;;;;;;2.97;1.30;;;;;;;;;;4975721;28;20194;-86
2024/02/19 13:06:19;;;;;;;4.87;1.40;;;;;;;;;;4996923;28;20183;-84
2024/02/19 13:09:24;;;;;;;4.93;1.30;;;;;;;;;;4997800;28;20210;-87
2024/02/19 13:12:30;;;;;;;3.60;1.20;;;;;;;;;;4996626;28;20186;-86
2024/02/19 13:15:35;;;;;;;2.27;1.30;;;;;;;;;;4996780;28;20206;-86
2024/02/19 13:18:39;;;;;;;1.77;0.93;;;;;;;;;;4985775;28;20198;-87
2024/02/19 13:21:44;;;;;;;2.77;1.40;;;;;;;;;;4984413;28;20182;-86
2024/02/19 13:24:48;;;;;;;4.30;1.30;;;;;;;;;;4996928;28;20627;-86
2024/02/19 13:27:52;;;;;;;1.90;1.20;;;;;;;;;;4996598;28;20186;-87
2024/02/19 13:30:58;;;;;;;4.27;1.30;;;;;;;;;;4996748;28;20187;-87
2024/02/19 13:34:02;;;;;;;1.40;0.83;;;;;;;;;;4987379;28;20187;-87
2024/02/19 13:37:07;;;;;;;3.87;1.00;;;;;;;;;;5000236;28;20623;-86
2024/02/19 13:40:12;;;;;;;5.00;1.20;;;;;;;;;;4977550;28;20226;-86
2024/02/19 13:43:18;;;;;;;3.67;1.87;;;;;;;;;;5000825;28;20182;-86
2024/02/19 13:46:22;;;;;;;2.50;1.40;;;;;;;;;;4994839;28;20183;-86
2024/02/19 13:49:26;;;;;;;2.87;1.20;;;;;;;;;;4992733;28;20214;-89
2024/02/19 13:52:30;;;;;;;3.20;1.40;;;;;;;;;;4993891;28;20539;-87
2024/02/19 13:55:34;;;;;;;3.30;1.30;;;;;;;;;;5000621;28;20178;-89
2024/02/19 13:58:39;;;;;;;3.83;1.20;;;;;;;;;;5006996;28;20551;-89
2024/02/19 14:01:43;;;;;;;2.90;1.17;;;;;;;;;;4994712;28;20190;-88
2024/02/19 14:04:47;;;;;;;6.23;1.30;;;;;;;;;;4983629;28;20186;-89
2024/02/19 14:07:52;;;;;;;3.93;1.77;;;;;;;;;;4994812;28;20550;-89
2024/02/19 14:10:57;;;;;;;2.87;1.40;;;;;;;;;;4984022;28;20182;-88
2024/02/19 14:14:01;;;;;;;2.43;1.43;;;;;;;;;;4995561;28;20186;-89
2024/02/19 14:17:06;;;;;;;1.60;1.20;;;;;;;;;;4973011;28;20209;-87
2024/02/19 14:20:11;;;;;;;2.07;1.30;;;;;;;;;;4995140;28;20714;-86
2024/02/19 14:23:16;;;;;;;2.57;1.20;;;;;;;;;;4983904;28;20190;-85
2024/02/19 14:26:27;;;;;;;4.63;2.20;;;;;;;;;;4995837;28;20182;-85
2024/02/19 14:29:31;;;;;;;2.03;1.40;;;;;;;;;;4996260;28;20218;-86
2024/02/19 14:32:36;;;;;;;4.27;1.83;;;;;;;;;;4995729;28;20182;-86
2024/02/19 14:35:40;;;;;;;3.77;1.93;;;;;;;;;;4973642;28;20182;-86
2024/02/19 14:38:44;;;;;;;1.97;1.20;;;;;;;;;;4984381;28;20627;-86
2024/02/19 14:41:49;;;;;;;5.03;1.30;;;;;;;;;;4995863;28;20186;-86
2024/02/19 14:44:52;;;;;;;2.80;1.20;;;;;;;;;;4995468;28;20550;-86
2024/02/19 14:47:57;;;;;;;6.13;3.97;;;;;;;;;;4983737;28;20186;-88
2024/02/19 14:51:01;;;;;;;7.27;4.10;;;;;;;;;;4971795;28;20186;-87
2024/02/19 14:54:05;;;;;;;10.07;1.70;;;;;;;;;;4994698;28;20195;-87
2024/02/19 14:57:09;;;;;;;3.27;1.60;;;;;;;;;;4983651;28;20190;-87
2024/02/19 15:00:20;;;;;;;8.93;1.60;;;;;;;;;;4983415;28;20221;-87
2024/02/19 15:03:25;;;;;;;4.30;1.40;;;;;;;;;;4995688;28;20178;-88
2024/02/19 15:06:29;;;;;;;3.93;1.17;;;;;;;;;;4997112;28;20200;-86
2024/02/19 15:09:33;;;;;;;3.60;1.50;;;;;;;;;;4973404;28;20214;-87
2024/02/19 15:12:38;;;;;;;2.47;0.93;;;;;;;;;;4994109;28;20551;-87
2024/02/19 15:15:42;;;;;;;2.43;1.33;;;;;;;;;;4982892;28;20671;-88
2024/02/19 15:18:46;;;;;;;2.73;1.20;;;;;;;;;;4982176;28;20221;-88
2024/02/19 15:21:50;;;;;;;2.07;1.10;;;;;;;;;;4993148;28;20186;-88
2024/02/19 15:24:54;;;;;;;3.17;1.00;;;;;;;;;;4994095;28;20182;-88
2024/02/19 15:27:58;;;;;;;2.63;1.23;;;;;;;;;;4993430;28;20639;-87
2024/02/19 15:31:03;;;;;;;3.63;1.00;;;;;;;;;;4994996;28;20178;-87
2024/02/19 15:34:07;;;;;;;3.13;1.00;;;;;;;;;;4995230;28;20182;-87
2024/02/19 15:37:11;;;;;;;2.43;1.00;;;;;;;;;;4994489;28;20182;-87
2024/02/19 15:40:15;;;;;;;2.30;0.83;;;;;;;;;;4993830;28;20229;-86
2024/02/19 15:43:19;;;;;;;2.77;1.03;;;;;;;;;;4994292;28;20635;-86
2024/02/19 15:46:23;;;;;;;2.97;1.20;;;;;;;;;;4982950;28;20182;-87
2024/02/19 15:49:27;;;;;;;2.30;1.23;;;;;;;;;;4982974;28;20210;-86
2024/02/19 15:52:31;;;;;;;4.70;3.03;;;;;;;;;;4993857;28;20182;-87
2024/02/19 15:55:37;;;;;;;6.47;4.50;;;;;;;;;;4993103;28;20550;-85
2024/02/19 15:58:47;;;;;;;4.13;2.50;;;;;;;;;;4985073;28;20183;-89
2024/02/19 16:01:51;;;;;;;3.37;1.63;;;;;;;;;;4952599;28;20175;-83
2024/02/19 16:04:55;;;;;;;3.07;1.50;;;;;;;;;;4974499;28;20191;-85
2024/02/19 16:07:59;;;;;;;4.07;1.70;;;;;;;;;;4974644;28;20183;-85
2024/02/19 16:11:04;;;;;;;4.60;1.30;;;;;;;;;;4963942;28;20579;-86
2024/02/19 16:14:08;;;;;;;2.00;1.10;;;;;;;;;;4974374;28;20217;-86
2024/02/19 16:17:13;;;;;;;3.70;2.50;;;;;;;;;;4962549;28;20208;-88
2024/02/19 16:20:17;;;;;;;6.43;2.53;;;;;;;;;;4961200;28;20226;-87
2024/02/19 16:23:24;;;;;;;3.60;1.83;;;;;;;;;;4974832;28;20199;-87
2024/02/19 16:26:28;;;;;;;6.03;3.20;;;;;;;;;;4975600;28;20187;-87
2024/02/19 16:29:32;;;;;;;16.53;8.40;;;;;;;;;;4975105;28;20219;-87
2024/02/19 16:32:37;;;;;;;7.70;3.73;;;;;;;;;;4975487;28;20179;-87
2024/02/19 16:35:42;;;;;;;7.77;3.43;;;;;;;;;;4975235;28;20187;-87
2024/02/19 16:38:48;;;;;;;8.50;4.63;;;;;;;;;;4963757;28;20262;-87
2024/02/19 16:41:52;;;;;;;8.60;5.43;;;;;;;;;;4974830;28;20660;-87
2024/02/19 16:44:56;;;;;;;7.47;2.93;;;;;;;;;;4974619;28;20207;-87
2024/02/19 16:48:01;;;;;;;6.97;2.93;;;;;;;;;;4974507;28;20183;-87
2024/02/19 16:51:05;;;;;;;5.83;2.30;;;;;;;;;;4975472;28;20179;-88
2024/02/19 16:54:10;;;;;;;8.07;3.70;;;;;;;;;;4963409;28;20187;-87
2024/02/19 16:57:14;;;;;;;5.10;2.40;;;;;;;;;;4975472;28;20187;-87
2024/02/19 17:00:20;;;;;;;4.57;2.00;;;;;;;;;;4963345;28;20607;-87
2024/02/19 17:03:24;;;;;;;3.57;1.43;;;;;;;;;;4974662;28;20175;-88
2024/02/19 17:06:31;;;;;;;3.53;1.30;;;;;;;;;;4974781;28;20620;-90
2024/02/19 17:09:53;;;;;;;4.17;1.40;;;;;;;;;;4965766;28;20695;-88
2024/02/19 17:12:58;;;;;;;3.43;1.20;;;;;;;;;;4952381;28;20183;-87
2024/02/19 17:16:03;;;;;;;3.90;1.60;;;;;;;;;;5021127;28;20245;-90
2024/02/19 17:19:07;;;;;;;5.33;1.53;;;;;;;;;;4974611;28;20218;-88
2024/02/19 17:22:11;;;;;;;2.77;1.37;;;;;;;;;;4975227;28;20632;-87
2024/02/19 17:25:15;;;;;;;5.93;1.10;;;;;;;;;;4963544;28;20186;-89
2024/02/19 17:28:22;;;;;;;2.27;1.20;;;;;;;;;;4963610;28;20275;-89
2024/02/19 17:31:28;;;;;;;6.63;1.57;;;;;;;;;;4973843;28;20179;-88
2024/02/19 17:34:32;;;;;;;7.43;1.40;;;;;;;;;;4951816;28;20195;-87
2024/02/19 17:37:38;;;;;;;5.40;1.93;;;;;;;;;;4974259;28;20658;-88
2024/02/19 17:40:42;;;;;;;3.63;1.67;;;;;;;;;;4963662;28;20234;-87
2024/02/19 17:43:48;;;;;;;2.93;1.60;;;;;;;;;;4975048;28;20187;-89
2024/02/19 17:46:54;;;;;;;5.50;1.63;;;;;;;;;;4962968;28;20571;-83
2024/02/19 17:49:58;;;;;;;3.80;1.43;;;;;;;;;;4973713;28;20215;-89
2024/02/19 17:53:03;;;;;;;2.20;1.20;;;;;;;;;;4973166;28;20179;-88
2024/02/19 17:56:07;;;;;;;2.77;1.20;;;;;;;;;;4962723;28;20187;-89
2024/02/19 17:59:12;;;;;;;6.33;1.60;;;;;;;;;;4963028;28;20222;-88
2024/02/19 18:02:17;;;;;;;4.00;1.80;;;;;;;;;;4963453;28;20636;-89
2024/02/19 18:05:21;;;;;;;5.90;2.20;;;;;;;;;;4962215;28;20183;-89
2024/02/19 18:08:26;;;;;;;5.33;2.50;;;;;;;;;;4973265;28;20191;-89
2024/02/19 18:11:30;;;;;;;6.27;2.50;;;;;;;;;;4973186;28;20183;-88
2024/02/19 18:14:34;;;;;;;7.83;2.80;;;;;;;;;;4951340;28;20186;-88
2024/02/19 18:17:38;;;;;;;4.83;2.13;;;;;;;;;;4967546;28;20183;-88
2024/02/19 18:20:47;;;;;;;9.40;2.50;;;;;;;;;;4961868;28;20599;-88
2024/02/19 18:23:54;;;;;;;6.03;2.80;;;;;;;;;;4950779;28;20183;-88
2024/02/19 18:26:59;;;;;;;3.57;2.17;;;;;;;;;;4961574;28;20636;-87
2024/02/19 18:30:09;;;;;;;6.63;2.60;;;;;;;;;;4973061;28;20218;-91